Latest Weather Observations for Minlaton Airport

IDS60801

Issued at 7:01 am CDT Thursday 22 February 2018 (issued every 30 minutes, with the page automatically refreshed every 10 minutes)

About weather observations | Map of weather stations | Latest weather observations for SA | Other Formats
Station Details ID: 022031 Name: MINLATON AERO Lat: -34.75 Lon: 137.53 Height: 32.0 m
Data from the previous 72 hours. | See also: Recent months at Minlaton Airport
Date/Time
CDT
Temp
°C
App
Temp
°C
Dew
Point
°C
Rel
Hum
%
Delta-T
°C
Wind Press
QNH
hPa
Press
MSL
hPa
Rain since
9am
mm
Dir  Spd
km/h
Gust
km/h
Spd
kts
Gust
kts
22/07:00am 21.6 23.1 19.0 85 1.6 SE 9 13 5 7 1009.1 1009.0 0.0
22/06:30am 21.7 23.1 18.7 83 1.9 SSE 9 11 5 6 1008.7 1008.6 0.0
22/06:00am 22.0 22.3 18.8 82 2.0 S 15 17 8 9 1008.0 1007.9 0.0
22/05:30am 22.3 21.6 18.7 80 2.3 ESE 20 28 11 15 1007.6 1007.5 0.0
22/05:00am 22.2 21.2 18.8 81 2.1 ESE 22 28 12 15 1007.4 1007.3 0.0
22/04:30am 22.2 21.3 19.0 82 2.0 ESE 22 26 12 14 1007.7 1007.6 0.0
22/04:00am 22.0 21.6 19.0 83 1.9 E 19 22 10 12 1007.8 1007.7 0.0
22/03:30am 21.6 21.2 18.8 84 1.8 E 19 22 10 12 1008.0 1007.9 0.0
22/03:00am 21.4 21.6 18.6 84 1.8 ESE 15 17 8 9 1008.2 1008.1 0.0
22/02:30am 21.9 23.7 18.3 80 2.3 SE 6 9 3 5 1008.7 1008.6 0.0
22/02:00am 22.2 22.0 18.6 80 2.3 ESE 17 22 9 12 1008.4 1008.3 0.0
22/01:30am 22.1 23.2 18.1 78 2.5 E 9 19 5 10 1008.8 1008.7 0.0
22/01:00am 21.9 22.4 17.5 76 2.7 E 11 13 6 7 1009.3 1009.2 0.0
22/12:30am 22.0 23.2 17.4 75 2.8 SSE 7 9 4 5 1009.5 1009.4 0.0
22/12:00am 22.3 22.3 17.2 73 3.1 E 13 15 7 8 1009.8 1009.7 0.0
 
Date/Time
CDT
Temp
°C
App
Temp
°C
Dew
Point
°C
Rel
Hum
%
Delta-T
°C
Wind Press
QNH
hPa
Press
MSL
hPa
Rain since
9am
mm
Dir  Spd
km/h
Gust
km/h
Spd
kts
Gust
kts
21/11:30pm 22.5 21.8 17.4 73 3.2 E 17 19 9 10 1010.0 1009.9 0.0
21/11:00pm 22.4 22.3 17.8 75 2.9 E 15 17 8 9 1010.5 1010.4 0.0
21/10:30pm 22.5 22.4 17.8 75 2.9 E 15 17 8 9 1010.8 1010.7 0.0
21/10:00pm 22.8 22.7 17.9 74 3.1 ENE 15 17 8 9 1011.3 1011.2 0.0
21/09:30pm 22.6 22.1 17.9 75 2.9 ENE 17 19 9 10 1011.3 1011.2 0.0
21/09:00pm 22.9 22.5 18.0 74 3.1 ENE 17 20 9 11 1011.1 1011.0 0.0
21/08:30pm 23.2 22.8 18.1 73 3.2 ENE 17 19 9 10 1011.1 1011.0 0.0
21/08:00pm 23.7 24.1 18.1 71 3.5 ENE 13 17 7 9 1010.9 1010.8 0.0
21/07:30pm 24.3 24.0 18.2 68 3.8 ENE 17 20 9 11 1010.6 1010.5 0.0
21/07:00pm 24.9 24.7 18.6 68 4.0 ENE 17 20 9 11 1010.3 1010.2 0.0
21/06:30pm 25.8 24.7 17.7 61 5.1 ENE 20 26 11 14 1010.2 1010.1 0.0
21/06:00pm 25.6 24.2 18.0 63 4.8 ENE 22 30 12 16 1010.4 1010.3 0.0
21/05:30pm 27.3 26.3 15.7 49 7.1 NNE 15 20 8 11 1010.3 1010.2 0.0
21/05:00pm 27.0 26.9 16.0 51 6.8 NNE 11 17 6 9 1010.4 1010.3 0.0
21/04:30pm 26.7 27.7 16.3 53 6.4 N 6 13 3 7 1010.7 1010.6 0.0
21/04:00pm 26.5 28.8 17.6 58 5.6 SE 2 11 1 6 1010.7 1010.6 0.0
21/03:30pm 26.1 27.6 17.5 59 5.4 WSW 6 9 3 5 1011.1 1011.0 0.0
21/03:00pm 25.3 26.7 17.7 62 4.8 SSW 7 9 4 5 1011.4 1011.3 0.0
21/02:30pm 25.1 25.6 18.3 66 4.3 SSW 13 20 7 11 1011.8 1011.7 0.0
21/02:00pm 24.9 25.1 18.6 68 4.0 SSW 15 20 8 11 1012.0 1011.9 0.0
21/01:30pm 25.3 24.0 17.2 61 5.0 SW 20 24 11 13 1011.9 1011.8 0.0
21/01:00pm 25.2 23.8 16.9 60 5.1 WSW 20 28 11 15 1012.2 1012.1 0.0
21/12:30pm 26.4 26.0 18.0 60 5.3 SW 17 24 9 13 1012.4 1012.3 0.0
21/12:00pm 26.4 25.5 16.9 56 5.9 S 17 20 9 11 1012.2 1012.1 0.0
21/11:30am 25.5 24.6 17.7 62 4.9 S 19 24 10 13 1012.4 1012.3 0.0
21/11:00am 25.0 23.9 17.2 62 4.8 S 19 24 10 13 1012.4 1012.3 0.0
21/10:30am 24.3 22.0 17.5 66 4.2 SE 26 35 14 19 1011.7 1011.6 0.0
21/10:16am 23.2 19.6 17.7 71 3.4 SE 33 43 18 23 1010.9 1010.8 0.0
21/10:00am 23.6 22.7 17.8 70 3.6 SSE 19 24 10 13 1012.1 1012.0 0.0
21/09:30am 24.0 21.6 17.3 66 4.2 SSE 26 32 14 17 1011.5 1011.4 0.0
21/09:00am 22.9 21.0 17.6 72 3.3 SE 24 33 13 18 1011.0 1010.9 0.0
21/08:30am 21.6 19.8 17.8 79 2.4 SE 24 33 13 18 1010.7 1010.6 0.0
21/08:00am 21.5 19.3 17.9 80 2.2 SSE 26 32 14 17 1010.6 1010.5 0.0
21/07:30am 21.5 18.7 17.3 77 2.6 SSE 28 35 15 19 1010.4 1010.3 0.0
21/07:00am 21.5 19.5 17.3 77 2.6 S 24 30 13 16 1010.6 1010.5 0.0
21/06:30am 21.7 19.6 17.1 75 2.8 S 24 30 13 16 1010.3 1010.2 0.0
21/06:00am 21.9 20.9 16.6 72 3.2 SSW 17 22 9 12 1010.3 1010.2 0.0
21/05:30am 22.1 22.2 16.4 70 3.5 SSW 11 17 6 9 1009.8 1009.7 0.0
21/05:00am 22.1 19.4 16.6 71 3.4 SSE 26 33 14 18 1009.3 1009.2 0.0
21/04:30am 21.7 20.1 16.6 73 3.1 SSE 20 24 11 13 1009.0 1008.9 0.0
21/04:00am 21.6 20.3 16.8 74 2.9 SSE 19 24 10 13 1009.2 1009.1 0.0
21/03:30am 21.5 20.2 16.7 74 2.9 S 19 22 10 12 1009.2 1009.1 0.0
21/03:00am 21.2 19.7 16.8 76 2.7 SSE 20 24 11 13 1009.3 1009.2 0.0
21/02:30am 21.3 20.3 16.5 74 2.9 S 17 20 9 11 1009.5 1009.4 0.0
21/02:00am 21.8 21.4 16.3 71 3.3 SSE 13 17 7 9 1009.8 1009.7 0.0
21/01:30am 22.0 20.2 16.1 69 3.6 SSE 20 24 11 13 1010.1 1010.0 0.0
21/01:00am 22.1 20.8 15.9 68 3.7 SSE 17 20 9 11 1010.2 1010.1 0.0
21/12:30am 22.2 20.9 16.7 71 3.4 S 19 24 10 13 1010.5 1010.4 0.0
21/12:00am 22.7 21.6 16.3 67 3.9 S 17 24 9 13 1010.6 1010.5 0.0
 
Date/Time
CDT
Temp
°C
App
Temp
°C
Dew
Point
°C
Rel
Hum
%
Delta-T
°C
Wind Press
QNH
hPa
Press
MSL
hPa
Rain since
9am
mm
Dir  Spd
km/h
Gust
km/h
Spd
kts
Gust
kts
20/11:30pm 22.8 22.2 15.6 64 4.3 SSE 13 15 7 8 1010.7 1010.6 0.0
20/11:00pm 23.3 22.7 15.6 62 4.6 S 13 17 7 9 1010.8 1010.7 0.0
20/10:30pm 23.5 22.1 15.5 60 4.8 SSE 17 17 9 9 1010.9 1010.8 0.0
20/10:00pm 23.9 22.3 15.1 58 5.3 S 17 20 9 11 1011.1 1011.0 0.0
20/09:30pm 24.1 22.8 14.8 56 5.5 S 15 19 8 10 1011.0 1010.9 0.0
20/09:00pm 24.4 22.7 14.8 55 5.7 S 17 20 9 11 1010.9 1010.8 0.0
20/08:30pm 24.8 22.5 14.6 53 6.1 S 20 24 11 13 1010.9 1010.8 0.0
20/08:00pm 25.8 22.8 13.6 47 7.2 S 22 28 12 15 1010.9 1010.8 0.0
20/07:30pm 26.9 23.4 13.3 43 8.0 S 24 30 13 16 1010.3 1010.2 0.0
20/07:00pm 27.7 24.2 13.3 41 8.5 S 24 30 13 16 1010.4 1010.3 0.0
20/06:30pm 29.3 25.1 13.5 38 9.4 S 28 35 15 19 1010.3 1010.2 0.0
20/06:00pm 30.7 26.3 11.6 31 11.1 SSE 26 35 14 19 1010.3 1010.2 0.0
20/05:30pm 31.7 28.8 11.0 28 12.0 SSE 17 26 9 14 1010.2 1010.1 0.0
20/05:00pm 30.9 27.7 15.3 38 9.6 WSW 26 32 14 17 1010.1 1010.0 0.0
20/04:30pm 34.1 29.9 13.5 28 12.5 SW 28 37 15 20 1010.1 1010.0 0.0
20/04:00pm 31.1 28.6 15.1 38 9.8 WSW 22 32 12 17 1010.4 1010.3 0.0
20/03:30pm 31.4 27.7 15.0 37 10.1 WSW 28 33 15 18 1010.3 1010.2 0.0
20/03:00pm 32.5 29.6 11.1 27 12.5 E 17 30 9 16 1010.2 1010.1 0.0
20/02:30pm 33.8 30.5 11.6 26 13.1 E 20 30 11 16 1010.3 1010.2 0.0
20/02:00pm 33.7 31.1 12.1 27 12.8 ENE 17 26 9 14 1010.4 1010.3 0.0
20/01:30pm 33.1 30.5 12.1 27 12.5 E 17 26 9 14 1010.8 1010.7 0.0
20/01:00pm 32.2 29.2 12.4 30 11.7 E 20 30 11 16 1011.0 1010.9 0.0
20/12:30pm 32.2 29.2 12.4 30 11.8 ENE 20 30 11 16 1011.2 1011.1 0.0
20/12:00pm 30.5 26.7 12.4 33 10.7 ENE 24 33 13 18 1011.3 1011.2 0.0
20/11:30am 29.8 26.2 13.1 36 9.9 ENE 24 30 13 16 1011.5 1011.4 0.0
20/11:00am 27.5 22.9 13.4 41 8.3 ENE 30 37 16 20 1011.7 1011.6 0.0
20/10:30am 27.2 22.4 13.9 44 7.9 ENE 32 35 17 19 1011.8 1011.7 0.0
20/10:00am 25.9 21.0 13.7 47 7.2 ENE 32 41 17 22 1011.9 1011.8 0.0
20/09:30am 25.1 20.4 14.3 51 6.4 ENE 32 41 17 22 1011.7 1011.6 0.0
20/09:00am 23.1 18.9 14.7 59 5.0 ENE 30 39 16 21 1011.9 1011.8 0.0
20/08:30am 21.2 17.5 15.1 68 3.6 E 28 33 15 18 1011.8 1011.7 0.0
20/08:00am 20.1 17.0 15.7 76 2.6 ENE 26 32 14 17 1011.8 1011.7 0.0
20/07:30am 18.9 15.9 15.8 82 1.8 E 26 30 14 16 1011.6 1011.5 0.0
20/07:00am 18.3 15.6 15.7 85 1.5 E 24 30 13 16 1011.4 1011.3 0.0
20/06:30am 18.7 15.7 15.9 84 1.7 E 26 30 14 16 1011.1 1011.0 0.0
20/06:00am 18.2 15.1 15.6 85 1.5 E 26 30 14 16 1010.8 1010.7 0.0
20/05:30am 18.4 14.9 15.6 84 1.7 ESE 28 32 15 17 1010.8 1010.7 0.0
20/05:00am 18.4 14.9 15.6 84 1.7 ESE 28 33 15 18 1010.8 1010.7 0.0
20/04:30am 18.3 14.3 15.2 82 1.8 ESE 30 33 16 18 1010.8 1010.7 0.0
20/04:00am 18.4 14.5 15.5 83 1.7 ESE 30 35 16 19 1011.0 1010.9 0.0
20/03:30am 18.3 14.5 15.7 85 1.5 ESE 30 35 16 19 1011.3 1011.2 0.0
20/03:00am 18.4 15.0 15.8 85 1.5 ESE 28 32 15 17 1011.6 1011.5 0.0
20/02:30am 18.4 15.1 16.0 86 1.4 ESE 28 33 15 18 1011.6 1011.5 0.0
20/02:00am 18.3 14.5 15.7 85 1.5 ESE 30 35 16 19 1011.8 1011.7 0.0
20/01:30am 18.3 14.1 15.7 85 1.5 ESE 32 37 17 20 1011.9 1011.8 0.0
20/01:00am 18.0 13.9 16.0 88 1.2 ESE 32 39 17 21 1012.1 1012.0 0.0
20/12:30am 17.9 14.1 15.7 87 1.3 ESE 30 37 16 20 1012.2 1012.1 0.0
20/12:00am 17.9 14.1 15.7 87 1.3 SE 30 37 16 20 1012.5 1012.4 0.0
 
Date/Time
CDT
Temp
°C
App
Temp
°C
Dew
Point
°C
Rel
Hum
%
Delta-T
°C
Wind Press
QNH
hPa
Press
MSL
hPa
Rain since
9am
mm
Dir  Spd
km/h
Gust
km/h
Spd
kts
Gust
kts
19/11:30pm 17.8 13.6 15.6 87 1.3 SE 32 39 17 21 1012.8 1012.7 0.0
19/11:00pm 17.7 13.8 15.5 87 1.3 SE 30 35 16 19 1013.2 1013.1 0.0
19/10:30pm 17.7 13.4 15.3 86 1.4 SE 32 39 17 21 1013.0 1012.9 0.0
19/10:00pm 17.8 13.8 15.2 85 1.5 SE 30 35 16 19 1013.1 1013.0 0.0
19/09:30pm 18.0 14.0 15.3 84 1.6 SSE 30 37 16 20 1012.9 1012.8 0.0
19/09:00pm 18.3 14.2 15.0 81 1.9 SSE 30 37 16 20 1012.5 1012.4 0.0
19/08:30pm 18.8 14.7 14.9 78 2.3 SSE 30 35 16 19 1012.6 1012.5 0.0
19/08:00pm 19.8 15.2 14.6 72 3.0 SSE 32 39 17 21 1012.3 1012.2 0.0
19/07:30pm 20.9 15.3 14.5 67 3.7 SSE 37 46 20 25 1011.8 1011.7 0.0
19/07:00pm 22.0 16.8 14.4 62 4.5 SE 35 44 19 24 1011.7 1011.6 0.0
19/06:30pm 23.0 17.7 14.3 58 5.1 SE 35 46 19 25 1011.7 1011.6 0.0
19/06:00pm 24.0 18.0 14.4 55 5.7 SSE 39 48 21 26 1011.9 1011.8 0.0
19/05:30pm 24.9 20.0 14.4 52 6.2 SE 33 44 18 24 1012.0 1011.9 0.0
19/05:00pm 25.0 19.7 14.2 51 6.4 SSE 35 46 19 25 1011.9 1011.8 0.0
19/04:30pm 25.5 20.5 14.0 49 6.8 SE 33 44 18 24 1012.1 1012.0 0.0
19/04:00pm 25.4 20.7 13.3 47 7.1 SE 30 37 16 20 1012.6 1012.5 0.0
19/03:30pm 25.6 21.0 13.5 47 7.1 SE 30 39 16 21 1012.9 1012.8 0.0
19/03:00pm 25.2 20.2 13.4 48 6.9 SE 32 46 17 25 1013.1 1013.0 0.0
19/02:30pm 25.5 20.5 14.0 49 6.8 SE 33 44 18 24 1013.6 1013.5 0.0
19/02:00pm 25.6 20.7 14.4 50 6.7 ESE 33 46 18 25 1013.9 1013.8 0.0
19/01:30pm 24.9 20.0 13.8 50 6.5 ESE 32 44 17 24 1013.9 1013.8 0.0
19/01:00pm 24.8 18.8 13.4 49 6.7 SE 37 48 20 26 1013.9 1013.8 0.0
19/12:30pm 24.6 19.5 13.8 51 6.3 SE 33 50 18 27 1014.1 1014.0 0.0
19/12:00pm 23.5 18.1 13.9 55 5.6 SE 35 50 19 27 1014.6 1014.5 0.0
19/11:30am 23.7 18.8 14.4 56 5.5 SE 33 44 18 24 1014.8 1014.7 0.0
19/11:00am 22.7 17.2 13.7 56 5.2 ESE 35 46 19 25 1014.9 1014.8 0.0
19/10:30am 21.7 16.6 14.8 65 4.1 SE 35 46 19 25 1015.1 1015.0 0.0
19/10:00am 21.2 16.3 15.3 69 3.5 SE 35 46 19 25 1015.0 1014.9 0.0
19/09:30am 20.4 15.1 14.3 68 3.5 SE 35 43 19 23 1015.0 1014.9 0.0
19/09:00am 20.2 15.3 15.4 74 2.8 SE 35 46 19 25 1015.0 1014.9 2.4
19/08:30am 19.1 15.1 15.2 78 2.3 SE 30 39 16 21 1014.8 1014.7 2.4
19/08:00am 18.4 14.2 14.7 79 2.1 SE 30 39 16 21 1014.7 1014.6 2.4
19/07:30am 18.0 12.8 14.5 80 2.0 SE 35 43 19 23 1014.2 1014.1 2.4

Other Formats:

Comma delimited format used in spreadsheet applications
http://www.bom.gov.au/fwo/IDS60801/IDS60801.95659.axf

JavaScript Object Notation format (JSON) in row-major order
http://www.bom.gov.au/fwo/IDS60801/IDS60801.95659.json